sensor_id;sensor_type;location;lat;lon;timestamp;P1;durP1;ratioP1;P2;durP2;ratioP2
19621;SDS011;9958;33.196;-97.114;2023-05-10T00:01:43;8.02;;;5.40;;
19621;SDS011;9958;33.196;-97.114;2023-05-10T00:04:12;6.85;;;5.60;;
19621;SDS011;9958;33.196;-97.114;2023-05-10T00:06:42;6.78;;;5.47;;
19621;SDS011;9958;33.196;-97.114;2023-05-10T00:09:10;10.63;;;5.75;;
19621;SDS011;9958;33.196;-97.114;2023-05-10T00:11:39;8.18;;;5.50;;
19621;SDS011;9958;33.196;-97.114;2023-05-10T00:14:07;7.57;;;6.00;;
19621;SDS011;9958;33.196;-97.114;2023-05-10T00:16:35;9.20;;;5.60;;
19621;SDS011;9958;33.196;-97.114;2023-05-10T00:19:04;8.52;;;6.05;;
19621;SDS011;9958;33.196;-97.114;2023-05-10T00:21:32;9.00;;;5.68;;
19621;SDS011;9958;33.196;-97.114;2023-05-10T00:24:02;9.13;;;5.45;;
19621;SDS011;9958;33.196;-97.114;2023-05-10T00:26:31;8.88;;;5.45;;
19621;SDS011;9958;33.196;-97.114;2023-05-10T00:28:59;6.53;;;5.38;;
19621;SDS011;9958;33.196;-97.114;2023-05-10T00:31:27;8.27;;;6.00;;
19621;SDS011;9958;33.196;-97.114;2023-05-10T00:33:56;8.38;;;5.57;;
19621;SDS011;9958;33.196;-97.114;2023-05-10T00:36:24;8.10;;;5.40;;
19621;SDS011;9958;33.196;-97.114;2023-05-10T00:38:53;7.15;;;5.60;;
19621;SDS011;9958;33.196;-97.114;2023-05-10T00:41:22;8.05;;;6.03;;
19621;SDS011;9958;33.196;-97.114;2023-05-10T00:43:51;7.82;;;5.25;;
19621;SDS011;9958;33.196;-97.114;2023-05-10T00:46:19;7.55;;;6.25;;
19621;SDS011;9958;33.196;-97.114;2023-05-10T00:48:48;7.70;;;5.85;;
19621;SDS011;9958;33.196;-97.114;2023-05-10T00:51:17;7.45;;;5.22;;
19621;SDS011;9958;33.196;-97.114;2023-05-10T00:53:46;8.32;;;5.78;;
19621;SDS011;9958;33.196;-97.114;2023-05-10T00:56:16;8.32;;;5.70;;
19621;SDS011;9958;33.196;-97.114;2023-05-10T00:58:47;11.02;;;6.18;;
19621;SDS011;9958;33.196;-97.114;2023-05-10T01:01:15;7.68;;;6.15;;
19621;SDS011;9958;33.196;-97.114;2023-05-10T01:03:44;8.45;;;6.10;;
19621;SDS011;9958;33.196;-97.114;2023-05-10T01:06:13;9.20;;;6.13;;
19621;SDS011;9958;33.196;-97.114;2023-05-10T01:08:42;8.93;;;5.93;;
19621;SDS011;9958;33.196;-97.114;2023-05-10T01:11:10;10.05;;;6.03;;
19621;SDS011;9958;33.196;-97.114;2023-05-10T01:13:39;7.28;;;5.60;;
19621;SDS011;9958;33.196;-97.114;2023-05-10T01:16:12;10.20;;;6.40;;
19621;SDS011;9958;33.196;-97.114;2023-05-10T01:18:41;7.82;;;5.70;;
19621;SDS011;9958;33.196;-97.114;2023-05-10T01:21:15;8.43;;;5.90;;
19621;SDS011;9958;33.196;-97.114;2023-05-10T01:27:02;11.43;;;6.00;;
19621;SDS011;9958;33.196;-97.114;2023-05-10T01:30:04;10.25;;;6.55;;
19621;SDS011;9958;33.196;-97.114;2023-05-10T01:32:45;8.25;;;5.68;;
19621;SDS011;9958;33.196;-97.114;2023-05-10T01:35:22;9.57;;;6.03;;
19621;SDS011;9958;33.196;-97.114;2023-05-10T01:37:59;10.73;;;6.13;;
19621;SDS011;9958;33.196;-97.114;2023-05-10T01:40:35;10.27;;;6.32;;
19621;SDS011;9958;33.196;-97.114;2023-05-10T01:43:17;11.25;;;6.57;;
19621;SDS011;9958;33.196;-97.114;2023-05-10T01:45:52;13.70;;;7.32;;
19621;SDS011;9958;33.196;-97.114;2023-05-10T01:48:26;11.27;;;6.85;;
19621;SDS011;9958;33.196;-97.114;2023-05-10T01:50:57;8.55;;;6.95;;
19621;SDS011;9958;33.196;-97.114;2023-05-10T01:53:26;9.13;;;6.43;;
19621;SDS011;9958;33.196;-97.114;2023-05-10T01:55:56;8.73;;;5.47;;
19621;SDS011;9958;33.196;-97.114;2023-05-10T01:58:27;14.95;;;6.90;;
19621;SDS011;9958;33.196;-97.114;2023-05-10T02:00:59;8.75;;;6.65;;
19621;SDS011;9958;33.196;-97.114;2023-05-10T02:03:31;10.40;;;6.07;;
19621;SDS011;9958;33.196;-97.114;2023-05-10T02:06:01;10.07;;;6.22;;
19621;SDS011;9958;33.196;-97.114;2023-05-10T02:08:30;8.73;;;6.60;;
19621;SDS011;9958;33.196;-97.114;2023-05-10T02:11:03;8.23;;;6.05;;
19621;SDS011;9958;33.196;-97.114;2023-05-10T02:13:32;8.68;;;6.05;;
19621;SDS011;9958;33.196;-97.114;2023-05-10T02:16:05;7.57;;;5.50;;
19621;SDS011;9958;33.196;-97.114;2023-05-10T02:18:35;13.25;;;6.20;;
19621;SDS011;9958;33.196;-97.114;2023-05-10T02:21:04;7.78;;;6.07;;
19621;SDS011;9958;33.196;-97.114;2023-05-10T02:23:33;7.97;;;6.28;;
19621;SDS011;9958;33.196;-97.114;2023-05-10T02:26:03;10.95;;;6.68;;
19621;SDS011;9958;33.196;-97.114;2023-05-10T02:28:33;9.13;;;6.50;;
19621;SDS011;9958;33.196;-97.114;2023-05-10T02:31:03;9.00;;;6.82;;
19621;SDS011;9958;33.196;-97.114;2023-05-10T02:33:32;12.35;;;6.35;;
19621;SDS011;9958;33.196;-97.114;2023-05-10T02:36:04;7.95;;;5.88;;
19621;SDS011;9958;33.196;-97.114;2023-05-10T02:38:34;8.68;;;5.55;;
19621;SDS011;9958;33.196;-97.114;2023-05-10T02:41:03;7.88;;;6.15;;
19621;SDS011;9958;33.196;-97.114;2023-05-10T02:43:35;7.68;;;5.82;;
19621;SDS011;9958;33.196;-97.114;2023-05-10T02:46:04;8.45;;;6.10;;
19621;SDS011;9958;33.196;-97.114;2023-05-10T02:48:33;10.57;;;6.63;;
19621;SDS011;9958;33.196;-97.114;2023-05-10T02:51:05;7.03;;;5.75;;
19621;SDS011;9958;33.196;-97.114;2023-05-10T02:53:36;11.45;;;6.80;;
19621;SDS011;9958;33.196;-97.114;2023-05-10T02:56:09;11.70;;;6.38;;
19621;SDS011;9958;33.196;-97.114;2023-05-10T02:58:42;8.00;;;6.38;;
19621;SDS011;9958;33.196;-97.114;2023-05-10T03:01:11;9.10;;;6.00;;
19621;SDS011;9958;33.196;-97.114;2023-05-10T03:03:39;8.73;;;6.32;;
19621;SDS011;9958;33.196;-97.114;2023-05-10T03:06:09;9.90;;;6.13;;
19621;SDS011;9958;33.196;-97.114;2023-05-10T03:08:38;8.20;;;6.43;;
19621;SDS011;9958;33.196;-97.114;2023-05-10T03:11:10;7.47;;;5.50;;
19621;SDS011;9958;33.196;-97.114;2023-05-10T03:13:52;6.60;;;5.82;;
19621;SDS011;9958;33.196;-97.114;2023-05-10T03:16:30;9.40;;;6.47;;
19621;SDS011;9958;33.196;-97.114;2023-05-10T03:19:06;8.27;;;5.93;;
19621;SDS011;9958;33.196;-97.114;2023-05-10T03:21:42;8.50;;;6.18;;
19621;SDS011;9958;33.196;-97.114;2023-05-10T03:24:14;10.02;;;6.32;;
19621;SDS011;9958;33.196;-97.114;2023-05-10T03:26:44;8.07;;;6.47;;
19621;SDS011;9958;33.196;-97.114;2023-05-10T03:29:12;8.93;;;6.40;;
19621;SDS011;9958;33.196;-97.114;2023-05-10T03:31:41;10.90;;;6.82;;
19621;SDS011;9958;33.196;-97.114;2023-05-10T03:34:10;10.25;;;6.10;;
19621;SDS011;9958;33.196;-97.114;2023-05-10T03:36:39;11.93;;;7.03;;
19621;SDS011;9958;33.196;-97.114;2023-05-10T03:39:09;9.18;;;6.43;;
19621;SDS011;9958;33.196;-97.114;2023-05-10T03:41:37;10.25;;;6.28;;
19621;SDS011;9958;33.196;-97.114;2023-05-10T03:44:05;10.82;;;6.70;;
19621;SDS011;9958;33.196;-97.114;2023-05-10T03:46:34;11.38;;;6.75;;
19621;SDS011;9958;33.196;-97.114;2023-05-10T03:49:02;10.18;;;6.45;;
19621;SDS011;9958;33.196;-97.114;2023-05-10T03:51:30;10.13;;;6.80;;
19621;SDS011;9958;33.196;-97.114;2023-05-10T03:53:59;9.70;;;6.75;;
19621;SDS011;9958;33.196;-97.114;2023-05-10T03:56:29;9.98;;;7.25;;
19621;SDS011;9958;33.196;-97.114;2023-05-10T03:58:58;9.60;;;6.50;;
19621;SDS011;9958;33.196;-97.114;2023-05-10T04:01:26;10.80;;;6.60;;
19621;SDS011;9958;33.196;-97.114;2023-05-10T04:03:54;8.73;;;6.50;;
19621;SDS011;9958;33.196;-97.114;2023-05-10T04:06:22;10.25;;;6.57;;
19621;SDS011;9958;33.196;-97.114;2023-05-10T04:08:51;9.15;;;6.50;;
19621;SDS011;9958;33.196;-97.114;2023-05-10T04:11:19;10.27;;;6.75;;
19621;SDS011;9958;33.196;-97.114;2023-05-10T04:13:49;8.13;;;6.60;;
19621;SDS011;9958;33.196;-97.114;2023-05-10T04:16:18;12.68;;;7.47;;
19621;SDS011;9958;33.196;-97.114;2023-05-10T04:18:46;9.73;;;6.93;;
19621;SDS011;9958;33.196;-97.114;2023-05-10T04:21:15;11.45;;;6.97;;
19621;SDS011;9958;33.196;-97.114;2023-05-10T04:23:43;11.10;;;7.35;;
19621;SDS011;9958;33.196;-97.114;2023-05-10T04:26:11;7.85;;;6.70;;
19621;SDS011;9958;33.196;-97.114;2023-05-10T04:28:40;9.23;;;6.30;;
19621;SDS011;9958;33.196;-97.114;2023-05-10T04:31:09;10.02;;;6.65;;
19621;SDS011;9958;33.196;-97.114;2023-05-10T04:33:38;9.00;;;6.88;;
19621;SDS011;9958;33.196;-97.114;2023-05-10T04:36:06;9.07;;;6.97;;
19621;SDS011;9958;33.196;-97.114;2023-05-10T04:38:35;9.68;;;7.15;;
19621;SDS011;9958;33.196;-97.114;2023-05-10T04:41:04;10.88;;;7.15;;
19621;SDS011;9958;33.196;-97.114;2023-05-10T04:43:33;8.93;;;7.05;;
19621;SDS011;9958;33.196;-97.114;2023-05-10T04:46:01;12.38;;;7.43;;
19621;SDS011;9958;33.196;-97.114;2023-05-10T04:48:31;9.38;;;7.25;;
19621;SDS011;9958;33.196;-97.114;2023-05-10T04:50:59;14.20;;;7.38;;
19621;SDS011;9958;33.196;-97.114;2023-05-10T04:53:29;11.23;;;7.80;;
19621;SDS011;9958;33.196;-97.114;2023-05-10T04:55:57;9.15;;;6.72;;
19621;SDS011;9958;33.196;-97.114;2023-05-10T04:58:26;12.13;;;6.82;;
19621;SDS011;9958;33.196;-97.114;2023-05-10T05:00:54;10.27;;;7.25;;
19621;SDS011;9958;33.196;-97.114;2023-05-10T05:03:22;11.30;;;8.07;;
19621;SDS011;9958;33.196;-97.114;2023-05-10T05:05:52;12.05;;;6.68;;
19621;SDS011;9958;33.196;-97.114;2023-05-10T05:08:20;8.45;;;6.57;;
19621;SDS011;9958;33.196;-97.114;2023-05-10T05:10:49;10.95;;;7.38;;
19621;SDS011;9958;33.196;-97.114;2023-05-10T05:13:17;11.52;;;7.50;;
19621;SDS011;9958;33.196;-97.114;2023-05-10T05:15:46;10.32;;;7.28;;
19621;SDS011;9958;33.196;-97.114;2023-05-10T05:18:14;12.40;;;7.10;;
19621;SDS011;9958;33.196;-97.114;2023-05-10T05:20:42;9.68;;;7.22;;
19621;SDS011;9958;33.196;-97.114;2023-05-10T05:23:12;11.85;;;6.97;;
19621;SDS011;9958;33.196;-97.114;2023-05-10T05:25:41;11.50;;;7.35;;
19621;SDS011;9958;33.196;-97.114;2023-05-10T05:28:09;8.75;;;6.80;;
19621;SDS011;9958;33.196;-97.114;2023-05-10T05:30:37;10.02;;;6.90;;
19621;SDS011;9958;33.196;-97.114;2023-05-10T05:33:05;7.90;;;5.85;;
19621;SDS011;9958;33.196;-97.114;2023-05-10T05:35:34;10.82;;;6.25;;
19621;SDS011;9958;33.196;-97.114;2023-05-10T05:38:02;8.73;;;6.28;;
19621;SDS011;9958;33.196;-97.114;2023-05-10T05:40:32;8.27;;;5.90;;
19621;SDS011;9958;33.196;-97.114;2023-05-10T05:43:00;7.07;;;6.32;;
19621;SDS011;9958;33.196;-97.114;2023-05-10T05:45:29;7.78;;;6.28;;
19621;SDS011;9958;33.196;-97.114;2023-05-10T05:47:57;8.70;;;6.32;;
19621;SDS011;9958;33.196;-97.114;2023-05-10T05:50:25;7.68;;;6.10;;
19621;SDS011;9958;33.196;-97.114;2023-05-10T05:52:54;11.30;;;6.18;;
19621;SDS011;9958;33.196;-97.114;2023-05-10T05:55:22;9.77;;;5.93;;
19621;SDS011;9958;33.196;-97.114;2023-05-10T05:57:52;7.53;;;5.45;;
19621;SDS011;9958;33.196;-97.114;2023-05-10T06:00:21;8.93;;;7.07;;
19621;SDS011;9958;33.196;-97.114;2023-05-10T06:02:49;8.73;;;6.53;;
19621;SDS011;9958;33.196;-97.114;2023-05-10T06:05:17;9.13;;;5.90;;
19621;SDS011;9958;33.196;-97.114;2023-05-10T06:07:46;7.32;;;5.85;;
19621;SDS011;9958;33.196;-97.114;2023-05-10T06:10:14;6.63;;;5.38;;
19621;SDS011;9958;33.196;-97.114;2023-05-10T06:12:43;8.27;;;5.78;;
19621;SDS011;9958;33.196;-97.114;2023-05-10T06:15:13;10.05;;;5.88;;
19621;SDS011;9958;33.196;-97.114;2023-05-10T06:17:41;6.15;;;5.20;;
19621;SDS011;9958;33.196;-97.114;2023-05-10T06:20:10;7.88;;;5.05;;
19621;SDS011;9958;33.196;-97.114;2023-05-10T06:22:39;5.50;;;4.95;;
19621;SDS011;9958;33.196;-97.114;2023-05-10T06:25:07;6.97;;;5.38;;
19621;SDS011;9958;33.196;-97.114;2023-05-10T06:27:36;7.63;;;5.35;;
19621;SDS011;9958;33.196;-97.114;2023-05-10T06:30:05;7.22;;;5.22;;
19621;SDS011;9958;33.196;-97.114;2023-05-10T06:32:36;10.10;;;5.38;;
19621;SDS011;9958;33.196;-97.114;2023-05-10T06:35:04;5.32;;;4.82;;
19621;SDS011;9958;33.196;-97.114;2023-05-10T06:37:33;7.30;;;5.72;;
19621;SDS011;9958;33.196;-97.114;2023-05-10T06:40:02;7.45;;;5.65;;
19621;SDS011;9958;33.196;-97.114;2023-05-10T06:42:31;7.40;;;6.15;;
19621;SDS011;9958;33.196;-97.114;2023-05-10T06:44:59;8.00;;;5.88;;
19621;SDS011;9958;33.196;-97.114;2023-05-10T06:47:27;12.90;;;5.85;;
19621;SDS011;9958;33.196;-97.114;2023-05-10T06:49:57;7.95;;;6.25;;
19621;SDS011;9958;33.196;-97.114;2023-05-10T06:52:26;5.93;;;5.25;;
19621;SDS011;9958;33.196;-97.114;2023-05-10T06:54:54;7.20;;;5.50;;
19621;SDS011;9958;33.196;-97.114;2023-05-10T06:57:23;10.13;;;5.88;;
19621;SDS011;9958;33.196;-97.114;2023-05-10T06:59:51;8.70;;;6.03;;
19621;SDS011;9958;33.196;-97.114;2023-05-10T07:02:21;10.90;;;6.70;;
19621;SDS011;9958;33.196;-97.114;2023-05-10T07:04:49;8.07;;;5.85;;
19621;SDS011;9958;33.196;-97.114;2023-05-10T07:07:19;9.52;;;6.22;;
19621;SDS011;9958;33.196;-97.114;2023-05-10T07:09:47;6.47;;;4.90;;
19621;SDS011;9958;33.196;-97.114;2023-05-10T07:12:16;7.78;;;5.47;;
19621;SDS011;9958;33.196;-97.114;2023-05-10T07:14:45;7.70;;;4.78;;
19621;SDS011;9958;33.196;-97.114;2023-05-10T07:17:13;7.15;;;5.57;;
19621;SDS011;9958;33.196;-97.114;2023-05-10T07:19:42;6.57;;;5.00;;
19621;SDS011;9958;33.196;-97.114;2023-05-10T07:22:10;7.30;;;4.95;;
19621;SDS011;9958;33.196;-97.114;2023-05-10T07:24:40;8.05;;;5.15;;
19621;SDS011;9958;33.196;-97.114;2023-05-10T07:27:08;7.82;;;5.38;;
19621;SDS011;9958;33.196;-97.114;2023-05-10T07:29:36;5.95;;;4.20;;
19621;SDS011;9958;33.196;-97.114;2023-05-10T07:32:05;5.80;;;5.18;;
19621;SDS011;9958;33.196;-97.114;2023-05-10T07:34:33;6.78;;;4.78;;
19621;SDS011;9958;33.196;-97.114;2023-05-10T07:37:02;5.55;;;4.30;;
19621;SDS011;9958;33.196;-97.114;2023-05-10T07:39:31;5.25;;;3.88;;
19621;SDS011;9958;33.196;-97.114;2023-05-10T07:42:01;7.60;;;4.68;;
19621;SDS011;9958;33.196;-97.114;2023-05-10T07:44:30;5.10;;;4.07;;
19621;SDS011;9958;33.196;-97.114;2023-05-10T07:46:58;5.05;;;3.70;;
19621;SDS011;9958;33.196;-97.114;2023-05-10T07:49:26;5.00;;;4.07;;
19621;SDS011;9958;33.196;-97.114;2023-05-10T07:51:55;4.07;;;3.58;;
19621;SDS011;9958;33.196;-97.114;2023-05-10T07:54:23;5.03;;;4.28;;
19621;SDS011;9958;33.196;-97.114;2023-05-10T07:56:51;6.32;;;4.45;;
19621;SDS011;9958;33.196;-97.114;2023-05-10T07:59:21;5.50;;;4.45;;
19621;SDS011;9958;33.196;-97.114;2023-05-10T08:01:49;5.82;;;4.30;;
19621;SDS011;9958;33.196;-97.114;2023-05-10T08:04:18;6.75;;;4.25;;
19621;SDS011;9958;33.196;-97.114;2023-05-10T08:06:46;5.85;;;4.13;;
19621;SDS011;9958;33.196;-97.114;2023-05-10T08:09:14;5.43;;;4.30;;
19621;SDS011;9958;33.196;-97.114;2023-05-10T08:11:49;4.47;;;4.05;;
19621;SDS011;9958;33.196;-97.114;2023-05-10T08:14:17;7.57;;;3.90;;
19621;SDS011;9958;33.196;-97.114;2023-05-10T08:16:47;6.90;;;4.60;;
19621;SDS011;9958;33.196;-97.114;2023-05-10T08:19:15;8.35;;;4.53;;
19621;SDS011;9958;33.196;-97.114;2023-05-10T08:21:46;7.57;;;4.43;;
19621;SDS011;9958;33.196;-97.114;2023-05-10T08:24:15;6.18;;;4.63;;
19621;SDS011;9958;33.196;-97.114;2023-05-10T08:26:43;7.70;;;4.53;;
19621;SDS011;9958;33.196;-97.114;2023-05-10T08:29:11;7.28;;;5.60;;
19621;SDS011;9958;33.196;-97.114;2023-05-10T08:31:40;7.45;;;5.35;;
19621;SDS011;9958;33.196;-97.114;2023-05-10T08:34:09;5.57;;;5.00;;
19621;SDS011;9958;33.196;-97.114;2023-05-10T08:36:38;5.85;;;5.10;;
19621;SDS011;9958;33.196;-97.114;2023-05-10T08:39:06;7.15;;;5.68;;
19621;SDS011;9958;33.196;-97.114;2023-05-10T08:41:34;7.95;;;5.68;;
19621;SDS011;9958;33.196;-97.114;2023-05-10T08:44:06;7.43;;;5.05;;
19621;SDS011;9958;33.196;-97.114;2023-05-10T08:46:35;8.38;;;5.10;;
19621;SDS011;9958;33.196;-97.114;2023-05-10T08:49:07;6.57;;;5.07;;
19621;SDS011;9958;33.196;-97.114;2023-05-10T08:51:40;7.60;;;4.90;;
19621;SDS011;9958;33.196;-97.114;2023-05-10T08:54:11;5.15;;;4.65;;
19621;SDS011;9958;33.196;-97.114;2023-05-10T08:56:40;5.07;;;4.03;;
19621;SDS011;9958;33.196;-97.114;2023-05-10T08:59:08;5.55;;;4.18;;
19621;SDS011;9958;33.196;-97.114;2023-05-10T09:01:37;7.95;;;4.47;;
19621;SDS011;9958;33.196;-97.114;2023-05-10T09:04:07;4.95;;;4.45;;
19621;SDS011;9958;33.196;-97.114;2023-05-10T09:06:36;5.78;;;4.07;;
19621;SDS011;9958;33.196;-97.114;2023-05-10T09:09:05;6.25;;;4.30;;
19621;SDS011;9958;33.196;-97.114;2023-05-10T09:11:34;7.97;;;4.28;;
19621;SDS011;9958;33.196;-97.114;2023-05-10T09:14:02;5.25;;;4.40;;
19621;SDS011;9958;33.196;-97.114;2023-05-10T09:16:31;5.55;;;3.85;;
19621;SDS011;9958;33.196;-97.114;2023-05-10T09:18:59;5.28;;;3.88;;
19621;SDS011;9958;33.196;-97.114;2023-05-10T09:21:27;7.00;;;3.63;;
19621;SDS011;9958;33.196;-97.114;2023-05-10T09:23:58;5.13;;;3.65;;
19621;SDS011;9958;33.196;-97.114;2023-05-10T09:26:31;5.30;;;4.05;;
19621;SDS011;9958;33.196;-97.114;2023-05-10T09:29:00;4.55;;;3.72;;
19621;SDS011;9958;33.196;-97.114;2023-05-10T09:31:43;4.95;;;3.55;;
19621;SDS011;9958;33.196;-97.114;2023-05-10T09:34:15;7.57;;;3.60;;
19621;SDS011;9958;33.196;-97.114;2023-05-10T09:36:51;3.92;;;3.53;;
19621;SDS011;9958;33.196;-97.114;2023-05-10T09:39:31;3.67;;;3.10;;
19621;SDS011;9958;33.196;-97.114;2023-05-10T09:42:01;4.65;;;3.70;;
19621;SDS011;9958;33.196;-97.114;2023-05-10T09:44:30;4.10;;;3.55;;
19621;SDS011;9958;33.196;-97.114;2023-05-10T09:46:59;4.47;;;3.80;;
19621;SDS011;9958;33.196;-97.114;2023-05-10T09:49:28;4.93;;;3.38;;
19621;SDS011;9958;33.196;-97.114;2023-05-10T09:52:00;4.05;;;3.55;;
19621;SDS011;9958;33.196;-97.114;2023-05-10T09:54:31;5.10;;;3.72;;
19621;SDS011;9958;33.196;-97.114;2023-05-10T09:56:59;3.70;;;3.30;;
19621;SDS011;9958;33.196;-97.114;2023-05-10T09:59:28;4.95;;;3.47;;
19621;SDS011;9958;33.196;-97.114;2023-05-10T10:01:57;4.90;;;3.67;;
19621;SDS011;9958;33.196;-97.114;2023-05-10T10:04:27;4.35;;;3.50;;
19621;SDS011;9958;33.196;-97.114;2023-05-10T10:06:59;3.95;;;3.10;;
19621;SDS011;9958;33.196;-97.114;2023-05-10T10:09:29;6.35;;;3.85;;
19621;SDS011;9958;33.196;-97.114;2023-05-10T10:11:59;7.93;;;3.50;;
19621;SDS011;9958;33.196;-97.114;2023-05-10T10:14:28;5.60;;;3.70;;
19621;SDS011;9958;33.196;-97.114;2023-05-10T10:16:56;7.85;;;3.88;;
19621;SDS011;9958;33.196;-97.114;2023-05-10T10:19:27;4.53;;;3.70;;
19621;SDS011;9958;33.196;-97.114;2023-05-10T10:21:57;4.43;;;3.58;;
19621;SDS011;9958;33.196;-97.114;2023-05-10T10:24:25;5.22;;;3.50;;
19621;SDS011;9958;33.196;-97.114;2023-05-10T10:26:57;4.55;;;3.70;;
19621;SDS011;9958;33.196;-97.114;2023-05-10T10:29:31;5.38;;;3.30;;
19621;SDS011;9958;33.196;-97.114;2023-05-10T10:32:09;4.78;;;3.70;;
19621;SDS011;9958;33.196;-97.114;2023-05-10T10:34:47;4.47;;;3.88;;
19621;SDS011;9958;33.196;-97.114;2023-05-10T10:37:15;4.90;;;3.58;;
19621;SDS011;9958;33.196;-97.114;2023-05-10T10:39:44;3.97;;;3.47;;
19621;SDS011;9958;33.196;-97.114;2023-05-10T10:42:16;6.38;;;3.60;;
19621;SDS011;9958;33.196;-97.114;2023-05-10T10:45:12;4.65;;;3.10;;
19621;SDS011;9958;33.196;-97.114;2023-05-10T10:47:40;5.00;;;3.75;;
19621;SDS011;9958;33.196;-97.114;2023-05-10T10:50:09;5.85;;;3.80;;
19621;SDS011;9958;33.196;-97.114;2023-05-10T10:52:38;4.47;;;3.50;;
19621;SDS011;9958;33.196;-97.114;2023-05-10T10:55:07;3.85;;;3.38;;
19621;SDS011;9958;33.196;-97.114;2023-05-10T10:57:48;4.28;;;2.92;;
19621;SDS011;9958;33.196;-97.114;2023-05-10T11:00:24;5.53;;;3.30;;
19621;SDS011;9958;33.196;-97.114;2023-05-10T11:02:56;4.75;;;3.53;;
19621;SDS011;9958;33.196;-97.114;2023-05-10T11:05:27;4.10;;;3.30;;
19621;SDS011;9958;33.196;-97.114;2023-05-10T11:08:07;3.42;;;3.05;;
19621;SDS011;9958;33.196;-97.114;2023-05-10T11:10:50;4.10;;;3.05;;
19621;SDS011;9958;33.196;-97.114;2023-05-10T11:13:29;5.70;;;3.28;;
19621;SDS011;9958;33.196;-97.114;2023-05-10T11:15:58;3.55;;;2.85;;
19621;SDS011;9958;33.196;-97.114;2023-05-10T11:18:37;4.95;;;3.28;;
19621;SDS011;9958;33.196;-97.114;2023-05-10T11:21:07;3.70;;;3.33;;
19621;SDS011;9958;33.196;-97.114;2023-05-10T11:23:47;4.82;;;3.28;;
19621;SDS011;9958;33.196;-97.114;2023-05-10T11:26:17;5.22;;;3.30;;
19621;SDS011;9958;33.196;-97.114;2023-05-10T11:28:50;4.70;;;3.10;;
19621;SDS011;9958;33.196;-97.114;2023-05-10T11:31:19;4.80;;;3.13;;
19621;SDS011;9958;33.196;-97.114;2023-05-10T11:33:48;4.80;;;3.33;;
19621;SDS011;9958;33.196;-97.114;2023-05-10T11:36:18;3.50;;;3.20;;
19621;SDS011;9958;33.196;-97.114;2023-05-10T11:38:47;4.07;;;3.33;;
19621;SDS011;9958;33.196;-97.114;2023-05-10T11:41:17;3.75;;;3.08;;
19621;SDS011;9958;33.196;-97.114;2023-05-10T11:43:48;3.97;;;3.05;;
19621;SDS011;9958;33.196;-97.114;2023-05-10T11:46:19;6.80;;;3.10;;
19621;SDS011;9958;33.196;-97.114;2023-05-10T11:48:49;4.57;;;3.50;;
19621;SDS011;9958;33.196;-97.114;2023-05-10T11:51:20;3.65;;;3.28;;
19621;SDS011;9958;33.196;-97.114;2023-05-10T11:53:49;5.63;;;3.53;;
19621;SDS011;9958;33.196;-97.114;2023-05-10T11:56:17;5.75;;;3.83;;
19621;SDS011;9958;33.196;-97.114;2023-05-10T11:58:53;3.78;;;3.35;;
19621;SDS011;9958;33.196;-97.114;2023-05-10T12:01:22;5.93;;;3.28;;
19621;SDS011;9958;33.196;-97.114;2023-05-10T12:03:51;5.13;;;3.53;;
19621;SDS011;9958;33.196;-97.114;2023-05-10T12:06:25;4.72;;;3.10;;
19621;SDS011;9958;33.196;-97.114;2023-05-10T12:08:56;4.97;;;3.35;;
19621;SDS011;9958;33.196;-97.114;2023-05-10T12:11:25;5.30;;;3.70;;
19621;SDS011;9958;33.196;-97.114;2023-05-10T12:13:56;3.63;;;2.80;;
19621;SDS011;9958;33.196;-97.114;2023-05-10T12:16:24;6.43;;;3.42;;
19621;SDS011;9958;33.196;-97.114;2023-05-10T12:18:56;6.13;;;3.10;;
19621;SDS011;9958;33.196;-97.114;2023-05-10T12:21:25;5.97;;;3.20;;
19621;SDS011;9958;33.196;-97.114;2023-05-10T12:23:58;6.93;;;3.45;;
19621;SDS011;9958;33.196;-97.114;2023-05-10T12:26:28;7.68;;;3.67;;
19621;SDS011;9958;33.196;-97.114;2023-05-10T12:31:49;3.33;;;3.03;;
19621;SDS011;9958;33.196;-97.114;2023-05-10T12:34:24;6.30;;;3.35;;
19621;SDS011;9958;33.196;-97.114;2023-05-10T12:36:53;6.55;;;4.30;;
19621;SDS011;9958;33.196;-97.114;2023-05-10T12:39:22;5.80;;;3.45;;
19621;SDS011;9958;33.196;-97.114;2023-05-10T12:41:50;4.85;;;3.60;;
19621;SDS011;9958;33.196;-97.114;2023-05-10T12:44:20;5.38;;;3.30;;
19621;SDS011;9958;33.196;-97.114;2023-05-10T12:46:48;6.75;;;3.50;;
19621;SDS011;9958;33.196;-97.114;2023-05-10T12:49:17;4.22;;;3.08;;
19621;SDS011;9958;33.196;-97.114;2023-05-10T12:51:45;5.30;;;3.22;;
19621;SDS011;9958;33.196;-97.114;2023-05-10T12:54:13;5.03;;;3.58;;
19621;SDS011;9958;33.196;-97.114;2023-05-10T12:56:42;5.00;;;3.30;;
19621;SDS011;9958;33.196;-97.114;2023-05-10T12:59:10;4.78;;;3.58;;
19621;SDS011;9958;33.196;-97.114;2023-05-10T13:01:40;5.68;;;3.80;;
19621;SDS011;9958;33.196;-97.114;2023-05-10T13:04:09;5.63;;;3.47;;
19621;SDS011;9958;33.196;-97.114;2023-05-10T13:06:37;6.72;;;3.38;;
19621;SDS011;9958;33.196;-97.114;2023-05-10T13:09:05;7.90;;;4.05;;
19621;SDS011;9958;33.196;-97.114;2023-05-10T13:11:34;4.60;;;3.05;;
19621;SDS011;9958;33.196;-97.114;2023-05-10T13:14:02;7.32;;;3.60;;
19621;SDS011;9958;33.196;-97.114;2023-05-10T13:16:30;4.28;;;2.97;;
19621;SDS011;9958;33.196;-97.114;2023-05-10T13:19:00;4.30;;;2.92;;
19621;SDS011;9958;33.196;-97.114;2023-05-10T13:21:29;6.60;;;2.88;;
19621;SDS011;9958;33.196;-97.114;2023-05-10T13:23:57;6.30;;;2.85;;
19621;SDS011;9958;33.196;-97.114;2023-05-10T13:26:26;5.30;;;3.28;;
19621;SDS011;9958;33.196;-97.114;2023-05-10T13:28:55;4.50;;;2.90;;
19621;SDS011;9958;33.196;-97.114;2023-05-10T13:31:23;3.50;;;2.53;;
19621;SDS011;9958;33.196;-97.114;2023-05-10T13:33:51;2.92;;;2.53;;
19621;SDS011;9958;33.196;-97.114;2023-05-10T13:36:21;6.78;;;3.17;;
19621;SDS011;9958;33.196;-97.114;2023-05-10T13:38:50;5.55;;;2.95;;
19621;SDS011;9958;33.196;-97.114;2023-05-10T13:41:18;3.25;;;2.95;;
19621;SDS011;9958;33.196;-97.114;2023-05-10T13:43:47;5.10;;;3.05;;
19621;SDS011;9958;33.196;-97.114;2023-05-10T13:46:15;4.72;;;3.60;;
19621;SDS011;9958;33.196;-97.114;2023-05-10T13:48:43;6.53;;;3.38;;
19621;SDS011;9958;33.196;-97.114;2023-05-10T13:51:12;5.88;;;3.80;;
19621;SDS011;9958;33.196;-97.114;2023-05-10T13:53:41;5.20;;;4.40;;
19621;SDS011;9958;33.196;-97.114;2023-05-10T13:56:10;4.05;;;3.55;;
19621;SDS011;9958;33.196;-97.114;2023-05-10T13:58:38;9.02;;;4.43;;
19621;SDS011;9958;33.196;-97.114;2023-05-10T14:01:07;7.35;;;4.07;;
19621;SDS011;9958;33.196;-97.114;2023-05-10T14:03:35;5.85;;;4.55;;
19621;SDS011;9958;33.196;-97.114;2023-05-10T14:06:03;6.30;;;4.40;;
19621;SDS011;9958;33.196;-97.114;2023-05-10T14:08:32;7.00;;;4.03;;
19621;SDS011;9958;33.196;-97.114;2023-05-10T14:11:03;7.53;;;4.57;;
19621;SDS011;9958;33.196;-97.114;2023-05-10T14:13:31;6.03;;;4.25;;
19621;SDS011;9958;33.196;-97.114;2023-05-10T14:16:00;7.50;;;4.00;;
19621;SDS011;9958;33.196;-97.114;2023-05-10T14:18:28;6.55;;;4.38;;
19621;SDS011;9958;33.196;-97.114;2023-05-10T14:20:56;6.65;;;3.95;;
19621;SDS011;9958;33.196;-97.114;2023-05-10T14:23:25;6.20;;;3.72;;
19621;SDS011;9958;33.196;-97.114;2023-05-10T14:25:54;6.72;;;3.75;;
19621;SDS011;9958;33.196;-97.114;2023-05-10T14:28:24;5.68;;;3.65;;
19621;SDS011;9958;33.196;-97.114;2023-05-10T14:30:52;7.35;;;3.70;;
19621;SDS011;9958;33.196;-97.114;2023-05-10T14:33:20;4.95;;;3.20;;
19621;SDS011;9958;33.196;-97.114;2023-05-10T14:35:49;3.70;;;3.28;;
19621;SDS011;9958;33.196;-97.114;2023-05-10T14:38:17;5.10;;;4.00;;
19621;SDS011;9958;33.196;-97.114;2023-05-10T14:40:46;5.97;;;3.88;;
19621;SDS011;9958;33.196;-97.114;2023-05-10T14:43:14;5.88;;;3.65;;
19621;SDS011;9958;33.196;-97.114;2023-05-10T14:45:44;4.47;;;4.03;;
19621;SDS011;9958;33.196;-97.114;2023-05-10T14:48:13;6.65;;;4.30;;
19621;SDS011;9958;33.196;-97.114;2023-05-10T14:50:42;4.95;;;3.63;;
19621;SDS011;9958;33.196;-97.114;2023-05-10T14:53:12;5.88;;;3.53;;
19621;SDS011;9958;33.196;-97.114;2023-05-10T14:55:40;5.53;;;3.75;;